sensor_id;sensor_type;location;lat;lon;timestamp;pressure;altitude;pressure_sealevel;temperature;humidity
64025;BME280;50266;57.446;26.936;2023-05-19T00:00:33;100840.93;;;3.52;100.0
64025;BME280;50266;57.446;26.936;2023-05-19T00:01:33;100844.83;;;3.43;100.0
64025;BME280;50266;57.446;26.936;2023-05-19T00:02:33;100845.58;;;3.45;100.0
64025;BME280;50266;57.446;26.936;2023-05-19T00:03:33;100844.78;;;3.51;100.0
64025;BME280;50266;57.446;26.936;2023-05-19T00:04:33;100847.19;;;3.59;100.0
64025;BME280;50266;57.446;26.936;2023-05-19T00:05:33;100851.67;;;3.6;100.0
64025;BME280;50266;57.446;26.936;2023-05-19T00:06:33;100849.27;;;3.99;100.0
64025;BME280;50266;57.446;26.936;2023-05-19T00:07:33;100844.62;;;3.85;100.0
64025;BME280;50266;57.446;26.936;2023-05-19T00:08:33;100840.7;;;3.6;100.0
64025;BME280;50266;57.446;26.936;2023-05-19T00:09:33;100843.88;;;3.57;100.0
64025;BME280;50266;57.446;26.936;2023-05-19T00:10:33;100848.08;;;3.55;100.0
64025;BME280;50266;57.446;26.936;2023-05-19T00:11:33;100847.69;;;3.66;100.0
64025;BME280;50266;57.446;26.936;2023-05-19T00:12:33;100844.05;;;3.71;100.0
64025;BME280;50266;57.446;26.936;2023-05-19T00:13:33;100844.2;;;3.84;100.0
64025;BME280;50266;57.446;26.936;2023-05-19T00:14:33;100841.11;;;3.7;100.0
64025;BME280;50266;57.446;26.936;2023-05-19T00:15:33;100846.23;;;3.61;100.0
64025;BME280;50266;57.446;26.936;2023-05-19T00:16:33;100844.95;;;3.59;100.0
64025;BME280;50266;57.446;26.936;2023-05-19T00:17:33;100848.24;;;3.58;100.0
64025;BME280;50266;57.446;26.936;2023-05-19T00:18:33;100848.55;;;3.47;100.0
64025;BME280;50266;57.446;26.936;2023-05-19T00:19:33;100852.38;;;3.52;100.0
64025;BME280;50266;57.446;26.936;2023-05-19T00:20:33;100850.94;;;3.58;100.0
64025;BME280;50266;57.446;26.936;2023-05-19T00:21:33;100853.86;;;3.51;100.0
64025;BME280;50266;57.446;26.936;2023-05-19T00:22:33;100856.45;;;3.59;100.0
64025;BME280;50266;57.446;26.936;2023-05-19T00:23:33;100859.95;;;3.55;100.0
64025;BME280;50266;57.446;26.936;2023-05-19T00:24:33;100858.6;;;3.49;100.0
64025;BME280;50266;57.446;26.936;2023-05-19T00:25:33;100860.03;;;3.65;100.0
64025;BME280;50266;57.446;26.936;2023-05-19T00:26:33;100856.44;;;3.44;100.0
64025;BME280;50266;57.446;26.936;2023-05-19T00:27:33;100861.19;;;3.48;100.0
64025;BME280;50266;57.446;26.936;2023-05-19T00:28:33;100861.46;;;3.37;100.0
64025;BME280;50266;57.446;26.936;2023-05-19T00:29:33;100861.73;;;3.37;100.0
64025;BME280;50266;57.446;26.936;2023-05-19T00:30:33;100863.08;;;3.55;100.0
64025;BME280;50266;57.446;26.936;2023-05-19T00:31:33;100862.31;;;3.59;100.0
64025;BME280;50266;57.446;26.936;2023-05-19T00:32:33;100862.88;;;3.49;100.0
64025;BME280;50266;57.446;26.936;2023-05-19T00:33:33;100861.57;;;3.52;100.0
64025;BME280;50266;57.446;26.936;2023-05-19T00:34:33;100861.83;;;3.53;100.0
64025;BME280;50266;57.446;26.936;2023-05-19T00:35:33;100862.23;;;3.52;100.0
64025;BME280;50266;57.446;26.936;2023-05-19T00:36:33;100856.37;;;3.45;100.0
64025;BME280;50266;57.446;26.936;2023-05-19T00:37:33;100861.44;;;3.5;100.0
64025;BME280;50266;57.446;26.936;2023-05-19T00:38:33;100865.09;;;3.48;100.0
64025;BME280;50266;57.446;26.936;2023-05-19T00:39:33;100865.86;;;3.39;100.0
64025;BME280;50266;57.446;26.936;2023-05-19T00:40:34;100864.91;;;3.41;100.0
64025;BME280;50266;57.446;26.936;2023-05-19T00:41:33;100867.58;;;3.29;100.0
64025;BME280;50266;57.446;26.936;2023-05-19T00:42:33;100871.64;;;3.34;100.0
64025;BME280;50266;57.446;26.936;2023-05-19T00:43:33;100874.39;;;3.44;100.0
64025;BME280;50266;57.446;26.936;2023-05-19T00:44:34;100874.59;;;3.49;100.0
64025;BME280;50266;57.446;26.936;2023-05-19T00:45:33;100874.97;;;3.46;100.0
64025;BME280;50266;57.446;26.936;2023-05-19T00:46:33;100875.38;;;3.52;100.0
64025;BME280;50266;57.446;26.936;2023-05-19T00:47:33;100874.36;;;3.55;100.0
64025;BME280;50266;57.446;26.936;2023-05-19T00:48:33;100869.44;;;3.5;100.0
64025;BME280;50266;57.446;26.936;2023-05-19T00:49:33;100876.95;;;3.54;100.0
64025;BME280;50266;57.446;26.936;2023-05-19T00:50:33;100878.88;;;3.4;100.0
64025;BME280;50266;57.446;26.936;2023-05-19T00:51:33;100880.18;;;3.41;100.0
64025;BME280;50266;57.446;26.936;2023-05-19T00:52:33;100877.56;;;3.52;100.0
64025;BME280;50266;57.446;26.936;2023-05-19T00:53:33;100881.91;;;3.47;100.0
64025;BME280;50266;57.446;26.936;2023-05-19T00:54:33;100881.0;;;3.45;100.0
64025;BME280;50266;57.446;26.936;2023-05-19T00:55:33;100878.34;;;3.4;100.0
64025;BME280;50266;57.446;26.936;2023-05-19T00:56:33;100883.95;;;3.28;100.0
64025;BME280;50266;57.446;26.936;2023-05-19T00:57:33;100882.58;;;3.32;100.0
64025;BME280;50266;57.446;26.936;2023-05-19T00:58:33;100887.47;;;3.23;100.0
64025;BME280;50266;57.446;26.936;2023-05-19T00:59:33;100883.78;;;3.25;100.0
64025;BME280;50266;57.446;26.936;2023-05-19T01:00:33;100885.45;;;3.23;100.0
64025;BME280;50266;57.446;26.936;2023-05-19T01:01:33;100882.98;;;3.28;100.0
64025;BME280;50266;57.446;26.936;2023-05-19T01:02:33;100889.19;;;3.21;100.0
64025;BME280;50266;57.446;26.936;2023-05-19T01:03:34;100888.72;;;3.16;100.0
64025;BME280;50266;57.446;26.936;2023-05-19T01:04:33;100888.53;;;3.17;100.0
64025;BME280;50266;57.446;26.936;2023-05-19T01:05:33;100889.3;;;3.17;100.0
64025;BME280;50266;57.446;26.936;2023-05-19T01:06:34;100888.46;;;3.04;100.0
64025;BME280;50266;57.446;26.936;2023-05-19T01:07:33;100892.09;;;3.12;100.0
64025;BME280;50266;57.446;26.936;2023-05-19T01:08:34;100890.44;;;3.14;100.0
64025;BME280;50266;57.446;26.936;2023-05-19T01:09:33;100892.7;;;3.1;100.0
64025;BME280;50266;57.446;26.936;2023-05-19T01:10:33;100892.17;;;3.16;100.0
64025;BME280;50266;57.446;26.936;2023-05-19T01:11:33;100890.85;;;3.16;100.0
64025;BME280;50266;57.446;26.936;2023-05-19T01:12:34;100888.34;;;3.19;100.0
64025;BME280;50266;57.446;26.936;2023-05-19T01:13:34;100890.92;;;3.09;100.0
64025;BME280;50266;57.446;26.936;2023-05-19T01:14:34;100894.86;;;3.0;100.0
64025;BME280;50266;57.446;26.936;2023-05-19T01:15:37;100889.58;;;3.02;100.0
64025;BME280;50266;57.446;26.936;2023-05-19T01:16:42;100884.48;;;3.03;100.0
64025;BME280;50266;57.446;26.936;2023-05-19T01:18:44;100892.98;;;3.06;100.0
64025;BME280;50266;57.446;26.936;2023-05-19T01:19:53;100890.23;;;3.02;100.0
64025;BME280;50266;57.446;26.936;2023-05-19T01:20:46;100890.51;;;3.06;100.0
64025;BME280;50266;57.446;26.936;2023-05-19T01:24:12;100893.14;;;3.1;100.0
64025;BME280;50266;57.446;26.936;2023-05-19T01:25:03;100896.76;;;3.1;100.0
64025;BME280;50266;57.446;26.936;2023-05-19T01:29:02;100894.84;;;3.1;100.0
64025;BME280;50266;57.446;26.936;2023-05-19T01:31:00;100893.84;;;3.3;100.0
64025;BME280;50266;57.446;26.936;2023-05-19T01:32:00;100896.78;;;3.27;100.0
64025;BME280;50266;57.446;26.936;2023-05-19T01:33:01;100898.53;;;3.31;100.0
64025;BME280;50266;57.446;26.936;2023-05-19T01:34:00;100894.47;;;3.28;100.0
64025;BME280;50266;57.446;26.936;2023-05-19T01:35:00;100897.14;;;3.2;100.0
64025;BME280;50266;57.446;26.936;2023-05-19T01:36:02;100895.84;;;3.2;100.0
64025;BME280;50266;57.446;26.936;2023-05-19T01:37:01;100897.66;;;3.15;100.0
64025;BME280;50266;57.446;26.936;2023-05-19T01:38:01;100897.02;;;3.11;100.0
64025;BME280;50266;57.446;26.936;2023-05-19T01:39:01;100898.44;;;3.07;100.0
64025;BME280;50266;57.446;26.936;2023-05-19T01:40:00;100899.63;;;3.03;100.0
64025;BME280;50266;57.446;26.936;2023-05-19T01:41:01;100902.83;;;3.01;100.0
64025;BME280;50266;57.446;26.936;2023-05-19T01:42:01;100902.88;;;3.11;100.0
64025;BME280;50266;57.446;26.936;2023-05-19T01:43:00;100904.81;;;3.19;100.0
64025;BME280;50266;57.446;26.936;2023-05-19T01:44:00;100905.61;;;3.13;100.0
64025;BME280;50266;57.446;26.936;2023-05-19T01:45:00;100907.83;;;3.08;100.0
64025;BME280;50266;57.446;26.936;2023-05-19T01:46:01;100907.03;;;2.98;100.0
64025;BME280;50266;57.446;26.936;2023-05-19T01:47:01;100915.2;;;2.85;100.0
64025;BME280;50266;57.446;26.936;2023-05-19T01:48:01;100913.72;;;2.92;100.0
64025;BME280;50266;57.446;26.936;2023-05-19T01:49:01;100915.11;;;2.94;100.0
64025;BME280;50266;57.446;26.936;2023-05-19T01:50:01;100912.19;;;2.97;100.0
64025;BME280;50266;57.446;26.936;2023-05-19T01:51:01;100872.16;;;3.0;100.0
64025;BME280;50266;57.446;26.936;2023-05-19T01:52:01;100868.26;;;3.31;100.0
64025;BME280;50266;57.446;26.936;2023-05-19T01:53:01;100869.91;;;3.22;100.0
64025;BME280;50266;57.446;26.936;2023-05-19T01:54:01;100872.11;;;3.17;100.0
64025;BME280;50266;57.446;26.936;2023-05-19T01:55:01;100870.22;;;3.12;100.0
64025;BME280;50266;57.446;26.936;2023-05-19T01:56:01;100869.05;;;3.17;100.0
64025;BME280;50266;57.446;26.936;2023-05-19T01:57:03;100872.53;;;3.19;100.0
64025;BME280;50266;57.446;26.936;2023-05-19T02:00:17;100870.34;;;3.14;100.0
64025;BME280;50266;57.446;26.936;2023-05-19T02:01:29;100875.42;;;3.16;100.0
64025;BME280;50266;57.446;26.936;2023-05-19T02:02:24;100871.31;;;3.12;100.0
64025;BME280;50266;57.446;26.936;2023-05-19T02:04:38;100870.92;;;3.06;100.0
64025;BME280;50266;57.446;26.936;2023-05-19T02:05:25;100871.81;;;3.05;100.0
64025;BME280;50266;57.446;26.936;2023-05-19T02:06:37;100871.47;;;3.02;100.0
64025;BME280;50266;57.446;26.936;2023-05-19T02:07:30;100867.28;;;3.05;100.0
64025;BME280;50266;57.446;26.936;2023-05-19T02:08:54;100872.78;;;3.02;100.0
64025;BME280;50266;57.446;26.936;2023-05-19T02:09:40;100870.42;;;3.13;100.0
64025;BME280;50266;57.446;26.936;2023-05-19T02:10:37;100870.81;;;3.12;100.0
64025;BME280;50266;57.446;26.936;2023-05-19T02:11:37;100875.09;;;3.01;100.0
64025;BME280;50266;57.446;26.936;2023-05-19T02:12:37;100874.83;;;3.27;100.0
64025;BME280;50266;57.446;26.936;2023-05-19T02:13:37;100874.08;;;3.36;100.0
64025;BME280;50266;57.446;26.936;2023-05-19T02:14:44;100872.7;;;3.4;100.0
64025;BME280;50266;57.446;26.936;2023-05-19T02:15:43;100873.05;;;3.42;100.0
64025;BME280;50266;57.446;26.936;2023-05-19T02:16:44;100870.98;;;3.45;100.0
64025;BME280;50266;57.446;26.936;2023-05-19T02:17:43;100873.26;;;3.39;100.0
64025;BME280;50266;57.446;26.936;2023-05-19T02:18:43;100870.91;;;3.3;100.0
64025;BME280;50266;57.446;26.936;2023-05-19T02:19:43;100872.83;;;3.5;100.0
64025;BME280;50266;57.446;26.936;2023-05-19T02:20:43;100870.27;;;3.41;100.0
64025;BME280;50266;57.446;26.936;2023-05-19T02:21:43;100873.98;;;3.35;100.0
64025;BME280;50266;57.446;26.936;2023-05-19T02:22:43;100873.08;;;3.4;100.0
64025;BME280;50266;57.446;26.936;2023-05-19T02:23:43;100875.63;;;3.45;100.0
64025;BME280;50266;57.446;26.936;2023-05-19T02:24:43;100873.3;;;3.33;100.0
64025;BME280;50266;57.446;26.936;2023-05-19T02:25:43;100871.43;;;3.33;100.0
64025;BME280;50266;57.446;26.936;2023-05-19T02:26:43;100870.45;;;3.41;100.0
64025;BME280;50266;57.446;26.936;2023-05-19T02:27:43;100873.96;;;3.51;100.0
64025;BME280;50266;57.446;26.936;2023-05-19T02:28:43;100872.48;;;3.48;100.0
64025;BME280;50266;57.446;26.936;2023-05-19T02:29:43;100872.29;;;3.55;100.0
64025;BME280;50266;57.446;26.936;2023-05-19T02:30:43;100876.98;;;3.75;100.0
64025;BME280;50266;57.446;26.936;2023-05-19T02:31:43;100872.44;;;3.89;100.0
64025;BME280;50266;57.446;26.936;2023-05-19T02:32:43;100872.59;;;3.89;100.0
64025;BME280;50266;57.446;26.936;2023-05-19T02:33:43;100876.54;;;3.86;100.0
64025;BME280;50266;57.446;26.936;2023-05-19T02:34:43;100876.78;;;3.78;100.0
64025;BME280;50266;57.446;26.936;2023-05-19T02:35:43;100878.71;;;3.87;100.0
64025;BME280;50266;57.446;26.936;2023-05-19T02:36:43;100876.34;;;3.92;100.0
64025;BME280;50266;57.446;26.936;2023-05-19T02:37:43;100878.75;;;4.06;100.0
64025;BME280;50266;57.446;26.936;2023-05-19T02:38:43;100883.7;;;4.11;100.0
64025;BME280;50266;57.446;26.936;2023-05-19T02:39:43;100884.72;;;4.13;100.0
64025;BME280;50266;57.446;26.936;2023-05-19T02:40:43;100888.09;;;4.16;100.0
64025;BME280;50266;57.446;26.936;2023-05-19T02:41:43;100895.53;;;4.15;100.0
64025;BME280;50266;57.446;26.936;2023-05-19T02:42:43;100917.97;;;4.19;100.0
64025;BME280;50266;57.446;26.936;2023-05-19T02:43:43;100915.45;;;4.18;100.0
64025;BME280;50266;57.446;26.936;2023-05-19T02:44:43;100912.3;;;4.21;100.0
64025;BME280;50266;57.446;26.936;2023-05-19T02:45:43;100919.14;;;4.31;100.0
64025;BME280;50266;57.446;26.936;2023-05-19T02:46:43;100918.19;;;4.32;100.0
64025;BME280;50266;57.446;26.936;2023-05-19T02:47:43;100922.02;;;4.33;100.0
64025;BME280;50266;57.446;26.936;2023-05-19T02:48:43;100921.79;;;4.26;100.0
64025;BME280;50266;57.446;26.936;2023-05-19T02:49:43;100924.84;;;4.27;100.0
64025;BME280;50266;57.446;26.936;2023-05-19T02:50:43;100924.34;;;4.28;100.0
64025;BME280;50266;57.446;26.936;2023-05-19T02:51:43;100927.81;;;4.27;100.0
64025;BME280;50266;57.446;26.936;2023-05-19T02:52:43;100925.95;;;4.3;100.0
64025;BME280;50266;57.446;26.936;2023-05-19T02:53:43;100930.94;;;4.2;100.0
64025;BME280;50266;57.446;26.936;2023-05-19T02:54:43;100929.53;;;4.29;100.0
64025;BME280;50266;57.446;26.936;2023-05-19T02:55:43;100925.62;;;4.3;100.0
64025;BME280;50266;57.446;26.936;2023-05-19T02:56:43;100928.92;;;4.37;100.0
64025;BME280;50266;57.446;26.936;2023-05-19T02:57:43;100930.15;;;4.31;100.0
64025;BME280;50266;57.446;26.936;2023-05-19T02:58:43;100930.2;;;4.31;100.0
64025;BME280;50266;57.446;26.936;2023-05-19T02:59:43;100929.5;;;4.34;100.0
64025;BME280;50266;57.446;26.936;2023-05-19T03:00:43;100933.05;;;4.39;100.0
64025;BME280;50266;57.446;26.936;2023-05-19T03:01:43;100934.78;;;4.33;100.0
64025;BME280;50266;57.446;26.936;2023-05-19T03:02:43;100934.0;;;4.44;100.0
64025;BME280;50266;57.446;26.936;2023-05-19T03:03:43;100932.66;;;4.37;100.0
64025;BME280;50266;57.446;26.936;2023-05-19T03:04:43;100935.23;;;4.46;100.0
64025;BME280;50266;57.446;26.936;2023-05-19T03:05:43;100935.42;;;4.51;100.0
64025;BME280;50266;57.446;26.936;2023-05-19T03:06:43;100937.66;;;4.48;100.0
64025;BME280;50266;57.446;26.936;2023-05-19T03:07:43;100936.61;;;4.52;100.0
64025;BME280;50266;57.446;26.936;2023-05-19T03:08:43;100934.93;;;4.51;100.0
64025;BME280;50266;57.446;26.936;2023-05-19T03:09:43;100936.42;;;4.54;100.0
64025;BME280;50266;57.446;26.936;2023-05-19T03:10:44;100939.64;;;4.51;100.0
64025;BME280;50266;57.446;26.936;2023-05-19T03:11:43;100940.12;;;4.49;100.0
64025;BME280;50266;57.446;26.936;2023-05-19T03:12:43;100937.8;;;4.56;100.0
64025;BME280;50266;57.446;26.936;2023-05-19T03:13:43;100940.64;;;4.57;100.0
64025;BME280;50266;57.446;26.936;2023-05-19T03:14:43;100940.59;;;4.6;100.0
64025;BME280;50266;57.446;26.936;2023-05-19T03:15:43;100940.75;;;4.64;100.0
64025;BME280;50266;57.446;26.936;2023-05-19T03:16:43;100938.96;;;4.66;100.0
64025;BME280;50266;57.446;26.936;2023-05-19T03:17:43;100945.86;;;4.73;100.0
64025;BME280;50266;57.446;26.936;2023-05-19T03:18:44;100946.05;;;4.77;100.0
64025;BME280;50266;57.446;26.936;2023-05-19T03:19:43;100945.98;;;4.82;100.0
64025;BME280;50266;57.446;26.936;2023-05-19T03:20:43;100946.72;;;4.87;100.0
64025;BME280;50266;57.446;26.936;2023-05-19T03:21:43;100951.88;;;4.92;100.0
64025;BME280;50266;57.446;26.936;2023-05-19T03:22:43;100952.97;;;4.92;100.0
64025;BME280;50266;57.446;26.936;2023-05-19T03:23:44;100951.69;;;4.96;100.0
64025;BME280;50266;57.446;26.936;2023-05-19T03:24:44;100954.73;;;4.98;100.0
64025;BME280;50266;57.446;26.936;2023-05-19T03:25:44;100951.51;;;5.07;100.0
64025;BME280;50266;57.446;26.936;2023-05-19T03:26:44;100956.72;;;5.07;100.0
64025;BME280;50266;57.446;26.936;2023-05-19T03:27:44;100955.39;;;5.19;100.0
64025;BME280;50266;57.446;26.936;2023-05-19T03:28:44;100958.78;;;5.16;100.0
64025;BME280;50266;57.446;26.936;2023-05-19T03:29:44;100959.53;;;5.09;100.0
64025;BME280;50266;57.446;26.936;2023-05-19T03:30:44;100959.97;;;5.07;100.0
64025;BME280;50266;57.446;26.936;2023-05-19T03:31:44;100961.06;;;5.04;100.0
64025;BME280;50266;57.446;26.936;2023-05-19T03:32:44;100960.87;;;5.14;100.0
64025;BME280;50266;57.446;26.936;2023-05-19T03:33:44;100962.25;;;5.2;100.0
64025;BME280;50266;57.446;26.936;2023-05-19T03:34:44;100966.73;;;5.24;100.0
64025;BME280;50266;57.446;26.936;2023-05-19T03:35:44;100962.58;;;5.2;100.0
64025;BME280;50266;57.446;26.936;2023-05-19T03:36:44;100961.74;;;5.26;100.0
64025;BME280;50266;57.446;26.936;2023-05-19T03:37:44;100961.72;;;5.3;100.0
64025;BME280;50266;57.446;26.936;2023-05-19T03:38:44;100964.41;;;5.33;100.0
64025;BME280;50266;57.446;26.936;2023-05-19T03:39:44;100966.91;;;5.34;100.0
64025;BME280;50266;57.446;26.936;2023-05-19T03:40:44;100961.98;;;5.33;100.0
64025;BME280;50266;57.446;26.936;2023-05-19T03:41:44;100967.02;;;5.34;100.0
64025;BME280;50266;57.446;26.936;2023-05-19T03:42:44;100967.02;;;5.37;100.0
64025;BME280;50266;57.446;26.936;2023-05-19T03:43:44;100966.98;;;5.36;100.0
64025;BME280;50266;57.446;26.936;2023-05-19T03:44:44;100968.0;;;5.39;100.0
64025;BME280;50266;57.446;26.936;2023-05-19T03:45:44;100967.66;;;5.41;100.0
64025;BME280;50266;57.446;26.936;2023-05-19T03:46:44;100968.26;;;5.49;100.0
64025;BME280;50266;57.446;26.936;2023-05-19T03:47:44;100968.66;;;5.46;100.0
64025;BME280;50266;57.446;26.936;2023-05-19T03:48:44;100972.03;;;5.5;100.0
64025;BME280;50266;57.446;26.936;2023-05-19T03:49:44;100972.44;;;5.59;100.0
64025;BME280;50266;57.446;26.936;2023-05-19T03:50:44;100971.25;;;5.72;100.0
64025;BME280;50266;57.446;26.936;2023-05-19T03:51:44;100975.0;;;5.66;100.0
64025;BME280;50266;57.446;26.936;2023-05-19T03:52:44;100972.22;;;5.75;100.0
64025;BME280;50266;57.446;26.936;2023-05-19T03:53:44;100972.59;;;5.81;100.0
64025;BME280;50266;57.446;26.936;2023-05-19T03:54:44;100969.84;;;5.81;100.0
64025;BME280;50266;57.446;26.936;2023-05-19T03:55:44;100974.11;;;6.01;100.0
64025;BME280;50266;57.446;26.936;2023-05-19T03:56:44;100975.27;;;5.98;100.0
64025;BME280;50266;57.446;26.936;2023-05-19T03:57:44;100974.85;;;6.06;100.0
64025;BME280;50266;57.446;26.936;2023-05-19T03:58:44;100974.77;;;6.07;100.0
64025;BME280;50266;57.446;26.936;2023-05-19T03:59:44;100972.27;;;6.0;100.0
64025;BME280;50266;57.446;26.936;2023-05-19T04:00:44;100976.74;;;6.01;100.0
64025;BME280;50266;57.446;26.936;2023-05-19T04:01:44;100975.52;;;5.99;100.0
64025;BME280;50266;57.446;26.936;2023-05-19T04:02:44;100977.88;;;6.08;100.0
64025;BME280;50266;57.446;26.936;2023-05-19T04:03:44;100979.67;;;6.14;100.0
64025;BME280;50266;57.446;26.936;2023-05-19T04:04:44;100979.75;;;6.15;100.0
64025;BME280;50266;57.446;26.936;2023-05-19T04:05:44;100979.52;;;6.18;100.0
64025;BME280;50266;57.446;26.936;2023-05-19T04:06:44;100980.43;;;6.24;100.0
64025;BME280;50266;57.446;26.936;2023-05-19T04:07:44;100978.11;;;6.27;100.0
64025;BME280;50266;57.446;26.936;2023-05-19T04:08:44;100970.53;;;6.26;100.0
64025;BME280;50266;57.446;26.936;2023-05-19T04:09:44;100976.61;;;6.3;100.0
64025;BME280;50266;57.446;26.936;2023-05-19T04:10:44;100979.77;;;6.4;100.0
64025;BME280;50266;57.446;26.936;2023-05-19T04:11:44;100977.67;;;6.42;100.0
64025;BME280;50266;57.446;26.936;2023-05-19T04:12:44;100978.1;;;6.41;100.0
64025;BME280;50266;57.446;26.936;2023-05-19T04:13:44;100976.05;;;6.37;100.0
64025;BME280;50266;57.446;26.936;2023-05-19T04:14:44;100979.55;;;6.4;100.0
64025;BME280;50266;57.446;26.936;2023-05-19T04:15:44;100978.09;;;6.49;100.0
64025;BME280;50266;57.446;26.936;2023-05-19T04:16:44;100980.27;;;6.45;100.0
64025;BME280;50266;57.446;26.936;2023-05-19T04:17:44;100972.48;;;6.46;100.0
64025;BME280;50266;57.446;26.936;2023-05-19T04:18:44;100971.48;;;6.58;100.0
64025;BME280;50266;57.446;26.936;2023-05-19T04:19:44;100971.52;;;6.58;100.0
64025;BME280;50266;57.446;26.936;2023-05-19T04:20:44;100972.02;;;6.62;100.0
64025;BME280;50266;57.446;26.936;2023-05-19T04:21:44;100970.53;;;6.58;100.0
64025;BME280;50266;57.446;26.936;2023-05-19T04:22:44;100975.48;;;6.71;100.0
64025;BME280;50266;57.446;26.936;2023-05-19T04:23:44;100979.05;;;6.81;100.0
64025;BME280;50266;57.446;26.936;2023-05-19T04:24:44;100982.73;;;6.92;100.0
64025;BME280;50266;57.446;26.936;2023-05-19T04:25:44;100980.95;;;6.86;100.0
64025;BME280;50266;57.446;26.936;2023-05-19T04:26:44;100983.44;;;7.06;100.0
64025;BME280;50266;57.446;26.936;2023-05-19T04:27:44;100979.73;;;7.1;100.0
64025;BME280;50266;57.446;26.936;2023-05-19T04:28:44;100979.58;;;6.77;100.0
64025;BME280;50266;57.446;26.936;2023-05-19T04:29:44;100977.12;;;6.76;100.0
64025;BME280;50266;57.446;26.936;2023-05-19T04:30:44;100978.32;;;6.77;100.0
64025;BME280;50266;57.446;26.936;2023-05-19T04:31:44;100979.83;;;6.96;100.0
64025;BME280;50266;57.446;26.936;2023-05-19T04:32:44;100980.28;;;6.89;100.0
64025;BME280;50266;57.446;26.936;2023-05-19T04:33:44;100979.86;;;6.94;100.0
64025;BME280;50266;57.446;26.936;2023-05-19T04:34:44;100982.05;;;6.99;100.0
64025;BME280;50266;57.446;26.936;2023-05-19T04:35:44;100984.52;;;7.08;100.0
64025;BME280;50266;57.446;26.936;2023-05-19T04:36:44;100984.08;;;7.22;100.0
64025;BME280;50266;57.446;26.936;2023-05-19T04:37:44;100984.22;;;7.23;100.0
64025;BME280;50266;57.446;26.936;2023-05-19T04:38:44;100983.23;;;7.23;100.0
64025;BME280;50266;57.446;26.936;2023-05-19T04:39:44;100986.83;;;7.24;100.0
64025;BME280;50266;57.446;26.936;2023-05-19T04:40:45;100984.39;;;7.19;100.0
64025;BME280;50266;57.446;26.936;2023-05-19T04:41:45;100985.55;;;7.21;100.0
64025;BME280;50266;57.446;26.936;2023-05-19T04:42:45;100983.8;;;7.26;100.0
64025;BME280;50266;57.446;26.936;2023-05-19T04:43:45;100984.87;;;7.41;100.0
64025;BME280;50266;57.446;26.936;2023-05-19T04:44:45;100984.08;;;7.49;100.0
64025;BME280;50266;57.446;26.936;2023-05-19T04:45:45;100984.52;;;7.52;100.0
64025;BME280;50266;57.446;26.936;2023-05-19T04:46:45;100985.26;;;7.41;100.0
64025;BME280;50266;57.446;26.936;2023-05-19T04:47:45;100982.95;;;7.39;100.0
64025;BME280;50266;57.446;26.936;2023-05-19T04:48:45;100981.52;;;7.66;100.0
64025;BME280;50266;57.446;26.936;2023-05-19T04:49:45;100983.38;;;7.73;100.0
64025;BME280;50266;57.446;26.936;2023-05-19T04:50:45;100985.28;;;7.76;100.0
64025;BME280;50266;57.446;26.936;2023-05-19T04:51:45;100985.05;;;7.66;100.0
64025;BME280;50266;57.446;26.936;2023-05-19T04:52:45;100981.41;;;7.66;100.0
64025;BME280;50266;57.446;26.936;2023-05-19T04:53:45;100984.22;;;7.71;100.0
64025;BME280;50266;57.446;26.936;2023-05-19T04:54:45;100982.45;;;7.69;100.0
64025;BME280;50266;57.446;26.936;2023-05-19T04:55:45;100985.37;;;7.8;100.0
64025;BME280;50266;57.446;26.936;2023-05-19T04:56:45;100985.98;;;7.84;100.0
64025;BME280;50266;57.446;26.936;2023-05-19T04:57:45;100984.0;;;7.87;100.0
64025;BME280;50266;57.446;26.936;2023-05-19T04:58:45;100984.43;;;7.89;100.0
64025;BME280;50266;57.446;26.936;2023-05-19T04:59:45;100980.73;;;8.04;100.0
64025;BME280;50266;57.446;26.936;2023-05-19T05:00:45;100984.72;;;8.13;100.0
64025;BME280;50266;57.446;26.936;2023-05-19T05:01:45;100985.96;;;8.17;100.0
64025;BME280;50266;57.446;26.936;2023-05-19T05:02:45;100987.0;;;8.21;100.0
64025;BME280;50266;57.446;26.936;2023-05-19T05:03:45;100983.31;;;8.23;100.0
64025;BME280;50266;57.446;26.936;2023-05-19T05:04:45;100983.69;;;8.18;100.0
64025;BME280;50266;57.446;26.936;2023-05-19T05:05:45;100984.23;;;8.2;100.0
64025;BME280;50266;57.446;26.936;2023-05-19T05:06:45;100986.84;;;8.36;100.0
64025;BME280;50266;57.446;26.936;2023-05-19T05:07:45;100989.73;;;8.35;100.0
64025;BME280;50266;57.446;26.936;2023-05-19T05:08:45;100988.09;;;8.45;100.0
64025;BME280;50266;57.446;26.936;2023-05-19T05:09:45;100987.25;;;8.47;100.0
64025;BME280;50266;57.446;26.936;2023-05-19T05:10:45;100983.12;;;8.4;100.0
64025;BME280;50266;57.446;26.936;2023-05-19T05:11:45;100983.72;;;8.36;100.0
64025;BME280;50266;57.446;26.936;2023-05-19T05:12:45;100986.38;;;8.46;100.0
64025;BME280;50266;57.446;26.936;2023-05-19T05:13:45;100986.86;;;8.61;100.0
64025;BME280;50266;57.446;26.936;2023-05-19T05:14:46;100989.0;;;8.63;100.0
64025;BME280;50266;57.446;26.936;2023-05-19T05:15:45;100989.39;;;8.63;100.0
64025;BME280;50266;57.446;26.936;2023-05-19T05:16:45;100991.84;;;8.79;100.0
64025;BME280;50266;57.446;26.936;2023-05-19T05:17:45;100990.65;;;8.84;100.0
64025;BME280;50266;57.446;26.936;2023-05-19T05:18:45;100989.42;;;8.84;100.0
64025;BME280;50266;57.446;26.936;2023-05-19T05:19:45;100987.38;;;8.85;100.0
64025;BME280;50266;57.446;26.936;2023-05-19T05:20:45;100989.41;;;8.86;100.0
64025;BME280;50266;57.446;26.936;2023-05-19T05:21:45;100991.91;;;8.84;100.0
64025;BME280;50266;57.446;26.936;2023-05-19T05:22:45;100990.63;;;9.05;100.0
64025;BME280;50266;57.446;26.936;2023-05-19T05:23:45;100988.47;;;9.04;100.0
64025;BME280;50266;57.446;26.936;2023-05-19T05:24:45;100989.39;;;9.03;100.0
64025;BME280;50266;57.446;26.936;2023-05-19T05:25:45;100991.42;;;9.08;100.0